createdAt,value
2017-04-14T00:01:05.905Z,23
2017-04-14T00:02:13.993Z,23
2017-04-14T00:03:22.085Z,23
2017-04-14T00:04:30.170Z,23
2017-04-14T00:05:38.259Z,23
2017-04-14T00:06:46.350Z,23
2017-04-14T00:07:54.443Z,23
2017-04-14T00:09:02.528Z,23
2017-04-14T00:10:10.617Z,23
2017-04-14T00:11:18.772Z,23
2017-04-14T00:12:26.794Z,23
2017-04-14T00:13:34.879Z,23
2017-04-14T00:14:42.967Z,23
2017-04-14T00:15:51.056Z,23
2017-04-14T00:16:59.142Z,23
2017-04-14T00:18:07.227Z,23
2017-04-14T00:19:15.322Z,23
2017-04-14T00:20:23.410Z,23
2017-04-14T00:21:31.507Z,23
2017-04-14T00:22:39.591Z,23
2017-04-14T00:23:47.687Z,23
2017-04-14T00:24:55.770Z,23
2017-04-14T00:26:03.853Z,23
2017-04-14T00:27:11.947Z,23
2017-04-14T00:28:20.035Z,23
2017-04-14T00:29:28.118Z,23
2017-04-14T00:30:36.208Z,23
2017-04-14T00:31:44.298Z,23
2017-04-14T00:32:52.385Z,23
2017-04-14T00:34:00.470Z,23
2017-04-14T00:35:08.561Z,23
2017-04-14T00:36:16.647Z,23
2017-04-14T00:37:24.741Z,23
2017-04-14T00:38:32.830Z,23
2017-04-14T00:39:40.921Z,23
2017-04-14T00:40:49.005Z,23
2017-04-14T00:41:57.094Z,23
2017-04-14T00:43:05.184Z,23
2017-04-14T00:44:13.272Z,23
2017-04-14T00:45:21.363Z,23
2017-04-14T00:46:29.635Z,23
2017-04-14T00:47:37.548Z,23
2017-04-14T00:48:45.641Z,23
2017-04-14T00:49:53.725Z,23
2017-04-14T00:51:01.820Z,23
2017-04-14T00:52:09.917Z,23
2017-04-14T00:53:18.010Z,23
2017-04-14T00:54:26.104Z,23
2017-04-14T00:55:34.187Z,23
2017-04-14T00:56:42.277Z,23
2017-04-14T00:57:50.367Z,23
2017-04-14T00:58:58.461Z,23
2017-04-14T01:00:06.547Z,23
2017-04-14T01:01:14.694Z,23
2017-04-14T01:02:22.724Z,23
2017-04-14T01:03:30.812Z,23
2017-04-14T01:04:38.901Z,23
2017-04-14T01:05:46.986Z,23
2017-04-14T01:06:55.078Z,23
2017-04-14T01:08:03.169Z,23
2017-04-14T01:09:11.250Z,23
2017-04-14T01:10:19.342Z,23
2017-04-14T01:11:27.429Z,23
2017-04-14T01:12:35.516Z,23
2017-04-14T01:13:43.608Z,23
2017-04-14T01:14:51.694Z,23
2017-04-14T01:15:59.779Z,23
2017-04-14T01:17:07.874Z,23
2017-04-14T01:18:15.996Z,23
2017-04-14T01:19:24.054Z,23
2017-04-14T01:20:32.138Z,23
2017-04-14T01:21:40.222Z,24
2017-04-14T01:22:48.311Z,23
2017-04-14T01:23:56.400Z,23
2017-04-14T01:25:04.486Z,23
2017-04-14T01:26:12.578Z,23
2017-04-14T01:27:20.665Z,24
2017-04-14T01:28:28.750Z,23
2017-04-14T01:29:36.842Z,23
2017-04-14T01:30:44.932Z,24
2017-04-14T01:31:53.022Z,23
2017-04-14T01:33:01.106Z,23
2017-04-14T01:34:09.201Z,23
2017-04-14T01:35:17.370Z,23
2017-04-14T01:36:25.375Z,23
2017-04-14T01:37:33.461Z,23
2017-04-14T01:38:41.547Z,24
2017-04-14T01:39:49.636Z,23
2017-04-14T01:40:57.730Z,23
2017-04-14T01:42:05.815Z,23
2017-04-14T01:43:13.904Z,23
2017-04-14T01:44:21.989Z,23
2017-04-14T01:45:30.076Z,23
2017-04-14T01:46:38.170Z,23
2017-04-14T01:47:46.257Z,23
2017-04-14T01:48:54.337Z,23
2017-04-14T01:50:02.429Z,23
2017-04-14T01:51:10.515Z,23
2017-04-14T01:52:18.598Z,23
2017-04-14T01:53:26.690Z,23
2017-04-14T01:54:34.777Z,23
2017-04-14T01:55:42.863Z,23
2017-04-14T01:56:50.950Z,23
2017-04-14T01:57:59.037Z,24
2017-04-14T01:59:07.124Z,23
2017-04-14T02:00:15.212Z,23
2017-04-14T02:01:23.297Z,23
2017-04-14T02:02:31.386Z,23
2017-04-14T02:03:39.468Z,23
2017-04-14T02:04:47.555Z,23
2017-04-14T02:05:55.646Z,23
2017-04-14T02:07:03.731Z,23
2017-04-14T02:08:11.815Z,23
2017-04-14T02:09:19.911Z,23
2017-04-14T02:10:27.998Z,24
2017-04-14T02:11:36.099Z,23
2017-04-14T02:12:44.173Z,23
2017-04-14T02:13:52.263Z,23
2017-04-14T02:15:00.351Z,23
2017-04-14T02:16:08.448Z,23
2017-04-14T02:17:16.529Z,24
2017-04-14T02:18:24.619Z,23
2017-04-14T02:19:32.705Z,23
2017-04-14T02:20:40.793Z,23
2017-04-14T02:21:48.887Z,23
2017-04-14T02:22:56.975Z,23
2017-04-14T02:24:05.063Z,24
2017-04-14T02:25:13.148Z,23
2017-04-14T02:26:21.244Z,24
2017-04-14T02:27:29.330Z,23
2017-04-14T02:28:37.424Z,23
2017-04-14T02:29:45.518Z,23
2017-04-14T02:30:53.600Z,23
2017-04-14T02:32:01.685Z,23
2017-04-14T02:33:09.781Z,23
2017-04-14T02:34:17.868Z,23
2017-04-14T02:35:25.958Z,23
2017-04-14T02:36:34.040Z,23
2017-04-14T02:37:42.131Z,23
2017-04-14T02:38:50.217Z,23
2017-04-14T02:39:58.306Z,23
2017-04-14T02:41:06.390Z,23
2017-04-14T02:42:14.483Z,23
2017-04-14T02:43:22.563Z,24
2017-04-14T02:44:30.646Z,23
2017-04-14T02:45:38.743Z,23
2017-04-14T02:46:46.834Z,23
2017-04-14T02:47:54.918Z,23
2017-04-14T02:49:02.999Z,23
2017-04-14T02:50:11.098Z,23
2017-04-14T02:51:19.183Z,23
2017-04-14T02:52:27.271Z,23
2017-04-14T02:53:35.369Z,23
2017-04-14T02:54:43.457Z,23
2017-04-14T02:55:51.543Z,23
2017-04-14T02:56:59.635Z,24
2017-04-14T02:58:07.729Z,23
2017-04-14T02:59:15.820Z,23
2017-04-14T03:00:24.000Z,23
2017-04-14T03:01:31.992Z,23
2017-04-14T03:02:40.076Z,23
2017-04-14T03:03:48.162Z,23
2017-04-14T03:04:56.249Z,23
2017-04-14T03:06:04.335Z,23
2017-04-14T03:07:12.422Z,23
2017-04-14T03:08:20.509Z,23
2017-04-14T03:09:28.600Z,23
2017-04-14T03:10:36.685Z,23
2017-04-14T03:11:44.774Z,23
2017-04-14T03:12:52.869Z,23
2017-04-14T03:14:00.956Z,23
2017-04-14T03:15:09.050Z,23
2017-04-14T03:16:17.143Z,23
2017-04-14T03:17:25.225Z,23
2017-04-14T03:18:33.310Z,23
2017-04-14T03:19:41.397Z,23
2017-04-14T03:20:49.489Z,23
2017-04-14T03:21:57.574Z,23
2017-04-14T03:23:05.673Z,23
2017-04-14T03:24:13.765Z,23
2017-04-14T03:25:21.856Z,23
2017-04-14T03:26:29.943Z,23
2017-04-14T03:27:38.022Z,23
2017-04-14T03:28:46.111Z,23
2017-04-14T03:29:54.202Z,23
2017-04-14T03:31:02.286Z,23
2017-04-14T03:32:10.381Z,22
2017-04-14T03:33:18.474Z,22
2017-04-14T03:34:26.561Z,23
2017-04-14T03:35:34.642Z,23
2017-04-14T03:36:42.732Z,23
2017-04-14T03:37:50.820Z,23
2017-04-14T03:38:58.932Z,23
2017-04-14T03:40:06.989Z,23
2017-04-14T03:41:15.074Z,23
2017-04-14T03:42:23.161Z,22
2017-04-14T03:43:31.245Z,23
2017-04-14T03:44:39.334Z,23
2017-04-14T03:45:47.421Z,23
2017-04-14T03:46:55.589Z,22
2017-04-14T03:48:03.598Z,22
2017-04-14T03:49:11.693Z,22
2017-04-14T03:50:19.781Z,23
2017-04-14T03:51:27.868Z,22
2017-04-14T03:52:35.957Z,22
2017-04-14T03:53:44.042Z,22
2017-04-14T03:54:52.129Z,23
2017-04-14T03:56:00.213Z,23
2017-04-14T03:57:08.300Z,23
2017-04-14T03:58:16.389Z,22
2017-04-14T03:59:24.470Z,23
2017-04-14T04:00:32.567Z,23
2017-04-14T04:01:40.657Z,23
2017-04-14T04:02:48.747Z,23
2017-04-14T04:03:56.849Z,23
2017-04-14T04:05:04.920Z,23
2017-04-14T04:06:13.001Z,23
2017-04-14T04:07:21.088Z,23
2017-04-14T04:08:29.183Z,22
2017-04-14T04:09:37.270Z,23
2017-04-14T04:10:45.352Z,22
2017-04-14T04:11:53.447Z,22
2017-04-14T04:13:01.536Z,22
2017-04-14T04:14:09.622Z,23
2017-04-14T04:15:17.716Z,23
2017-04-14T04:16:25.802Z,23
2017-04-14T04:17:33.886Z,23
2017-04-14T04:18:41.969Z,23
2017-04-14T04:19:50.067Z,23
2017-04-14T04:20:58.152Z,23
2017-04-14T04:22:06.242Z,23
2017-04-14T04:23:14.327Z,23
2017-04-14T04:24:22.416Z,23
2017-04-14T04:25:30.497Z,23
2017-04-14T04:26:38.580Z,23
2017-04-14T04:27:46.667Z,23
2017-04-14T04:28:54.751Z,23
2017-04-14T04:30:02.836Z,23
2017-04-14T04:31:10.930Z,23
2017-04-14T04:32:19.012Z,23
2017-04-14T04:33:27.106Z,23
2017-04-14T04:34:35.186Z,23
2017-04-14T04:35:43.280Z,23
2017-04-14T04:36:51.368Z,23
2017-04-14T04:37:59.451Z,23
2017-04-14T04:39:07.538Z,23
2017-04-14T04:40:15.626Z,23
2017-04-14T04:41:23.707Z,23
2017-04-14T04:42:31.798Z,23
2017-04-14T04:43:39.884Z,23
2017-04-14T04:44:47.967Z,23
2017-04-14T04:45:56.047Z,23
2017-04-14T04:47:04.136Z,23
2017-04-14T04:48:12.228Z,23
2017-04-14T04:49:20.315Z,23
2017-04-14T04:50:28.394Z,23
2017-04-14T04:51:36.495Z,23
2017-04-14T04:52:44.572Z,23
2017-04-14T04:53:52.695Z,23
2017-04-14T04:55:00.748Z,23
2017-04-14T04:56:08.833Z,23
2017-04-14T04:57:16.920Z,23
2017-04-14T04:58:25.002Z,23
2017-04-14T04:59:33.103Z,23
2017-04-14T05:00:41.190Z,23
2017-04-14T05:01:49.271Z,23
2017-04-14T05:02:57.361Z,23
2017-04-14T05:04:05.442Z,23
2017-04-14T05:05:13.532Z,23
2017-04-14T05:06:21.620Z,23
2017-04-14T05:07:29.713Z,23
2017-04-14T05:08:37.799Z,23
2017-04-14T05:09:45.879Z,23
2017-04-14T05:10:53.971Z,23
2017-04-14T05:12:02.055Z,23
2017-04-14T05:13:10.139Z,23
2017-04-14T05:14:18.224Z,23
2017-04-14T05:15:26.317Z,23
2017-04-14T05:16:34.396Z,23
2017-04-14T05:17:42.484Z,23
2017-04-14T05:18:50.575Z,23
2017-04-14T05:19:58.659Z,23
2017-04-14T05:21:06.796Z,23
2017-04-14T05:22:14.839Z,24
2017-04-14T05:23:22.932Z,24
2017-04-14T05:24:31.017Z,24
2017-04-14T05:25:39.100Z,24
2017-04-14T05:26:47.190Z,24
2017-04-14T05:27:55.274Z,24
2017-04-14T05:29:03.354Z,24
2017-04-14T05:30:11.443Z,24
2017-04-14T05:31:19.569Z,24
2017-04-14T05:32:27.618Z,24
2017-04-14T05:33:35.699Z,24
2017-04-14T05:34:43.788Z,24
2017-04-14T05:35:51.880Z,24
2017-04-14T05:36:59.962Z,24
2017-04-14T05:38:08.045Z,24
2017-04-14T05:39:16.136Z,24
2017-04-14T05:40:24.226Z,24
2017-04-14T05:41:32.316Z,24
2017-04-14T05:42:40.408Z,24
2017-04-14T05:43:48.560Z,24
2017-04-14T05:44:56.576Z,24
2017-04-14T05:46:04.664Z,24
2017-04-14T05:47:12.748Z,24
2017-04-14T05:48:21.328Z,24
2017-04-14T05:49:28.934Z,24
2017-04-14T05:50:37.011Z,24
2017-04-14T05:51:45.902Z,24
2017-04-14T05:52:53.185Z,24
2017-04-14T05:54:01.266Z,24
2017-04-14T05:55:09.353Z,24
2017-04-14T05:56:17.441Z,24
2017-04-14T05:57:25.536Z,24
2017-04-14T05:58:33.628Z,24
2017-04-14T05:59:41.713Z,25
2017-04-14T06:00:49.795Z,25
2017-04-14T06:01:57.882Z,25
2017-04-14T06:03:06.582Z,25
2017-04-14T06:04:14.338Z,25
2017-04-14T06:05:22.148Z,25
2017-04-14T06:06:30.232Z,25
2017-04-14T06:07:38.324Z,25
2017-04-14T06:08:46.399Z,25
2017-04-14T06:09:54.493Z,25
2017-04-14T06:11:02.585Z,25
2017-04-14T06:12:10.673Z,25
2017-04-14T06:13:19.183Z,24
2017-04-14T06:14:26.843Z,25
2017-04-14T06:15:35.318Z,25
2017-04-14T06:16:43.013Z,25
2017-04-14T06:17:51.104Z,25
2017-04-14T06:18:59.378Z,25
2017-04-14T06:20:07.268Z,25
2017-04-14T06:21:15.356Z,25
2017-04-14T06:22:23.445Z,25
2017-04-14T06:23:31.539Z,25
2017-04-14T06:24:39.621Z,25
2017-04-14T06:25:47.714Z,25
2017-04-14T06:26:55.802Z,25
2017-04-14T06:28:03.881Z,25
2017-04-14T06:29:12.003Z,25
2017-04-14T06:30:20.309Z,25
2017-04-14T06:31:28.135Z,25
2017-04-14T06:32:36.313Z,25
2017-04-14T06:33:44.311Z,25
2017-04-14T06:34:52.551Z,25
2017-04-14T06:36:00.654Z,25
2017-04-14T06:37:08.725Z,25
2017-04-14T06:38:16.818Z,25
2017-04-14T06:39:24.899Z,25
2017-04-14T06:40:33.001Z,25
2017-04-14T06:41:41.076Z,25
2017-04-14T06:42:49.165Z,25
2017-04-14T06:43:57.242Z,25
2017-04-14T06:45:05.330Z,25
2017-04-14T06:46:13.415Z,25
2017-04-14T06:47:21.499Z,25
2017-04-14T06:48:29.593Z,25
2017-04-14T06:49:37.624Z,25
2017-04-14T06:50:45.610Z,25
2017-04-14T06:51:53.692Z,25
2017-04-14T06:53:01.780Z,25
2017-04-14T06:54:09.868Z,25
2017-04-14T06:55:17.950Z,25
2017-04-14T06:56:26.032Z,25
2017-04-14T06:57:34.126Z,25
2017-04-14T06:58:42.217Z,25
2017-04-14T06:59:50.304Z,25
2017-04-14T07:00:58.390Z,25
2017-04-14T07:02:06.477Z,25
2017-04-14T07:03:14.558Z,25
2017-04-14T07:04:22.641Z,25
2017-04-14T07:05:30.736Z,25
2017-04-14T07:06:38.910Z,25
2017-04-14T07:07:47.159Z,26
2017-04-14T07:08:55.103Z,26
2017-04-14T07:10:03.167Z,26
2017-04-14T07:11:11.272Z,26
2017-04-14T07:12:19.330Z,26
2017-04-14T07:13:27.431Z,26
2017-04-14T07:14:35.518Z,26
2017-04-14T07:15:43.605Z,26
2017-04-14T07:16:51.681Z,26
2017-04-14T07:17:59.682Z,26
2017-04-14T07:19:07.765Z,26
2017-04-14T07:20:15.940Z,26
2017-04-14T07:21:24.037Z,26
2017-04-14T07:22:32.026Z,26
2017-04-14T07:23:40.188Z,26
2017-04-14T07:24:48.197Z,26
2017-04-14T07:25:56.353Z,26
2017-04-14T07:27:04.427Z,26
2017-04-14T07:28:12.456Z,26
2017-04-14T07:29:20.639Z,26
2017-04-14T07:30:29.134Z,26
2017-04-14T07:31:38.061Z,26
2017-04-14T07:32:44.805Z,26
2017-04-14T07:33:52.889Z,26
2017-04-14T07:35:01.243Z,26
2017-04-14T07:36:09.060Z,26
2017-04-14T07:37:17.146Z,26
2017-04-14T07:38:25.348Z,26
2017-04-14T07:39:33.319Z,26
2017-04-14T07:40:41.407Z,26
2017-04-14T07:41:49.492Z,26
2017-04-14T07:42:57.580Z,26
2017-04-14T07:44:05.666Z,26
2017-04-14T07:45:13.744Z,26
2017-04-14T07:46:21.839Z,26
2017-04-14T07:47:29.922Z,26
2017-04-14T07:48:38.016Z,26
2017-04-14T07:49:46.130Z,26
2017-04-14T07:50:54.184Z,26
2017-04-14T07:52:02.274Z,26
2017-04-14T07:53:10.360Z,26
2017-04-14T07:54:18.448Z,26
2017-04-14T07:55:26.530Z,26
2017-04-14T07:56:34.619Z,27
2017-04-14T07:57:42.700Z,27
2017-04-14T07:58:50.788Z,28
2017-04-14T07:59:59.002Z,27
2017-04-14T08:01:06.959Z,28
2017-04-14T08:02:15.037Z,28
2017-04-14T08:03:23.123Z,28
2017-04-14T08:04:31.210Z,28
2017-04-14T08:05:39.295Z,28
2017-04-14T08:06:47.385Z,28
2017-04-14T08:07:55.477Z,28
2017-04-14T08:09:03.558Z,28
2017-04-14T08:10:11.642Z,28
2017-04-14T08:11:19.725Z,28
2017-04-14T08:12:27.812Z,28
2017-04-14T08:13:35.903Z,28
2017-04-14T08:14:43.983Z,28
2017-04-14T08:15:52.078Z,28
2017-04-14T08:17:00.163Z,28
2017-04-14T08:18:08.243Z,28
2017-04-14T08:19:16.332Z,27
2017-04-14T08:20:24.417Z,28
2017-04-14T08:21:32.617Z,27
2017-04-14T08:22:40.588Z,27
2017-04-14T08:23:48.677Z,27
2017-04-14T08:24:56.772Z,27
2017-04-14T08:26:04.853Z,27
2017-04-14T08:27:12.936Z,27
2017-04-14T08:28:21.042Z,27
2017-04-14T08:29:29.118Z,27
2017-04-14T08:30:37.201Z,27
2017-04-14T08:31:45.367Z,27
2017-04-14T08:32:53.377Z,27
2017-04-14T08:34:01.460Z,27
2017-04-14T08:35:09.545Z,27
2017-04-14T08:36:17.634Z,27
2017-04-14T08:37:25.722Z,27
2017-04-14T08:38:33.802Z,27
2017-04-14T08:39:41.891Z,27
2017-04-14T08:40:49.977Z,27
2017-04-14T08:41:58.059Z,27
2017-04-14T08:43:06.149Z,27
2017-04-14T08:44:14.237Z,27
2017-04-14T08:45:22.323Z,27
2017-04-14T08:46:30.403Z,27
2017-04-14T08:47:38.491Z,27
2017-04-14T08:48:46.585Z,27
2017-04-14T08:49:54.666Z,27
2017-04-14T08:51:02.755Z,27
2017-04-14T08:52:10.838Z,27
2017-04-14T08:53:18.923Z,27
2017-04-14T08:54:27.013Z,27
2017-04-14T08:55:35.096Z,27
2017-04-14T08:56:43.177Z,27
2017-04-14T08:57:51.261Z,27
2017-04-14T08:58:59.357Z,27
2017-04-14T09:00:07.434Z,27
2017-04-14T09:01:15.522Z,27
2017-04-14T09:02:23.609Z,27
2017-04-14T09:03:31.696Z,27
2017-04-14T09:04:39.789Z,27
2017-04-14T09:05:47.868Z,27
2017-04-14T09:06:55.966Z,27
2017-04-14T09:08:04.053Z,27
2017-04-14T09:09:12.145Z,27
2017-04-14T09:10:20.228Z,27
2017-04-14T09:11:28.316Z,27
2017-04-14T09:12:36.401Z,27
2017-04-14T09:13:44.483Z,27
2017-04-14T09:14:52.570Z,27
2017-04-14T09:16:00.654Z,27
2017-04-14T09:17:08.741Z,27
2017-04-14T09:18:16.826Z,27
2017-04-14T09:19:24.916Z,27
2017-04-14T09:20:33.000Z,27
2017-04-14T09:21:41.088Z,27
2017-04-14T09:22:49.181Z,27
2017-04-14T09:23:57.259Z,27
2017-04-14T09:25:05.342Z,27
2017-04-14T09:26:13.426Z,27
2017-04-14T09:27:21.519Z,27
2017-04-14T09:28:29.595Z,27
2017-04-14T09:29:37.682Z,27
2017-04-14T09:30:45.771Z,27
2017-04-14T09:31:53.851Z,27
2017-04-14T09:33:01.934Z,27
2017-04-14T09:34:10.023Z,27
2017-04-14T09:35:18.163Z,27
2017-04-14T09:36:26.188Z,27
2017-04-14T09:37:34.271Z,27
2017-04-14T09:38:42.359Z,27
2017-04-14T09:39:50.444Z,27
2017-04-14T09:40:58.526Z,27
2017-04-14T09:42:06.618Z,27
2017-04-14T09:43:14.704Z,27
2017-04-14T09:44:22.788Z,27
2017-04-14T09:45:30.869Z,27
2017-04-14T09:46:38.963Z,27
2017-04-14T09:47:47.042Z,27
2017-04-14T09:48:55.125Z,26
2017-04-14T09:50:03.207Z,27
2017-04-14T09:51:11.291Z,27
2017-04-14T09:52:19.440Z,27
2017-04-14T09:53:27.466Z,27
2017-04-14T09:54:35.558Z,27
2017-04-14T09:55:43.637Z,27
2017-04-14T09:56:51.727Z,27
2017-04-14T09:57:59.828Z,27
2017-04-14T09:59:07.911Z,27
2017-04-14T10:00:15.994Z,27
2017-04-14T10:01:24.076Z,27
2017-04-14T10:02:32.166Z,27
2017-04-14T10:03:40.256Z,27
2017-04-14T10:04:48.335Z,27
2017-04-14T10:05:56.423Z,27
2017-04-14T10:07:04.510Z,27
2017-04-14T10:08:12.598Z,27
2017-04-14T10:09:20.682Z,27
2017-04-14T10:10:28.770Z,27
2017-04-14T10:11:36.853Z,27
2017-04-14T10:12:45.088Z,27
2017-04-14T10:13:53.022Z,27
2017-04-14T10:15:01.103Z,27
2017-04-14T10:16:09.187Z,27
2017-04-14T10:17:17.274Z,27
2017-04-14T10:18:25.359Z,27
2017-04-14T10:19:33.449Z,27
2017-04-14T10:20:41.530Z,27
2017-04-14T10:21:49.618Z,26
2017-04-14T10:22:57.774Z,27
2017-04-14T10:24:05.789Z,27
2017-04-14T10:25:13.872Z,27
2017-04-14T10:26:21.959Z,26
2017-04-14T10:27:30.042Z,25
2017-04-14T10:28:38.124Z,24
2017-04-14T10:29:46.212Z,24
2017-04-14T10:30:54.300Z,23
2017-04-14T10:32:02.380Z,23
2017-04-14T10:33:10.510Z,23
2017-04-14T10:34:18.561Z,23
2017-04-14T10:35:26.648Z,23
2017-04-14T10:36:34.733Z,22
2017-04-14T10:37:42.819Z,22
2017-04-14T10:38:50.913Z,22
2017-04-14T10:39:58.996Z,22
2017-04-14T10:41:07.083Z,22
2017-04-14T10:42:15.174Z,21
2017-04-14T10:43:23.350Z,21
2017-04-14T10:44:31.448Z,22
2017-04-14T10:45:39.432Z,21
2017-04-14T10:46:47.527Z,21
2017-04-14T10:47:55.609Z,21
2017-04-14T10:49:03.700Z,21
2017-04-14T10:50:11.788Z,21
2017-04-14T10:51:19.889Z,21
2017-04-14T10:52:27.969Z,21
2017-04-14T10:53:36.062Z,21
2017-04-14T10:54:44.144Z,20
2017-04-14T10:55:52.228Z,20
2017-04-14T10:57:00.315Z,21
2017-04-14T10:58:08.408Z,21
2017-04-14T10:59:16.498Z,21
2017-04-14T11:00:24.577Z,20
2017-04-14T11:01:33.032Z,21
2017-04-14T11:02:40.954Z,21
2017-04-14T11:03:48.858Z,21
2017-04-14T11:04:57.379Z,20
2017-04-14T11:06:05.493Z,21
2017-04-14T11:07:13.494Z,20
2017-04-14T11:08:21.203Z,21
2017-04-14T11:09:29.292Z,21
2017-04-14T11:10:37.713Z,20
2017-04-14T11:11:45.461Z,20
2017-04-14T11:12:53.545Z,20
2017-04-14T11:14:01.629Z,20
2017-04-14T11:15:09.833Z,20
2017-04-14T11:16:17.808Z,21
2017-04-14T11:17:26.020Z,20
2017-04-14T11:18:33.981Z,21
2017-04-14T11:19:42.065Z,20
2017-04-14T11:20:50.152Z,20
2017-04-14T11:21:58.261Z,20
2017-04-14T11:23:06.321Z,20
2017-04-14T11:24:14.407Z,20
2017-04-14T11:25:22.491Z,20
2017-04-14T11:26:30.576Z,20
2017-04-14T11:27:38.655Z,20
2017-04-14T11:28:46.744Z,21
2017-04-14T11:29:54.826Z,20
2017-04-14T11:31:02.909Z,20
2017-04-14T11:32:10.992Z,21
2017-04-14T11:33:19.081Z,21
2017-04-14T11:34:27.164Z,20
2017-04-14T11:35:35.388Z,21
2017-04-14T11:36:43.333Z,20
2017-04-14T11:37:51.460Z,20
2017-04-14T11:38:59.496Z,20
2017-04-14T11:40:07.585Z,21
2017-04-14T11:41:15.675Z,21
2017-04-14T11:42:23.753Z,20
2017-04-14T11:43:31.874Z,20
2017-04-14T11:44:39.950Z,20
2017-04-14T11:45:48.017Z,20
2017-04-14T11:46:56.093Z,20
2017-04-14T11:48:04.180Z,21
2017-04-14T11:49:12.263Z,21
2017-04-14T11:50:20.348Z,20
2017-04-14T11:51:28.530Z,20
2017-04-14T11:52:36.548Z,20
2017-04-14T11:53:44.600Z,20
2017-04-14T11:54:52.686Z,20
2017-04-14T11:56:00.773Z,20
2017-04-14T11:57:08.859Z,20
2017-04-14T11:58:17.075Z,20
2017-04-14T11:59:25.021Z,20
2017-04-14T12:00:33.111Z,20
2017-04-14T12:01:41.196Z,20
2017-04-14T12:02:49.277Z,20
2017-04-14T12:03:57.364Z,20
2017-04-14T12:05:05.447Z,21
2017-04-14T12:06:13.530Z,20
2017-04-14T12:07:21.615Z,20
2017-04-14T12:08:29.701Z,20
2017-04-14T12:09:37.783Z,20
2017-04-14T12:10:45.872Z,20
2017-04-14T12:11:53.960Z,20
2017-04-14T12:13:02.042Z,20
2017-04-14T12:14:10.132Z,20
2017-04-14T12:15:18.212Z,20
2017-04-14T12:16:26.299Z,20
2017-04-14T12:17:34.382Z,20
2017-04-14T12:18:42.476Z,20
2017-04-14T12:19:50.566Z,20
2017-04-14T12:20:58.674Z,20
2017-04-14T12:22:06.736Z,20
2017-04-14T12:23:14.819Z,20
2017-04-14T12:24:22.907Z,20
2017-04-14T12:25:30.990Z,20
2017-04-14T12:26:39.086Z,20
2017-04-14T12:27:47.156Z,20
2017-04-14T12:28:55.241Z,20
2017-04-14T12:30:03.322Z,20
2017-04-14T12:31:11.406Z,20
2017-04-14T12:32:19.496Z,20
2017-04-14T12:33:27.587Z,20
2017-04-14T12:34:35.667Z,20
2017-04-14T12:35:43.754Z,20
2017-04-14T12:36:51.855Z,20
2017-04-14T12:37:59.966Z,20
2017-04-14T12:39:08.009Z,21
2017-04-14T12:40:16.098Z,20
2017-04-14T12:41:24.180Z,20
2017-04-14T12:42:32.266Z,20
2017-04-14T12:43:40.358Z,20
2017-04-14T12:44:48.439Z,20
2017-04-14T12:45:56.525Z,20
2017-04-14T12:47:04.611Z,20
2017-04-14T12:48:12.700Z,20
2017-04-14T12:49:20.783Z,20
2017-04-14T12:50:28.864Z,20
2017-04-14T12:51:36.951Z,20
2017-04-14T12:52:45.049Z,20
2017-04-14T12:53:53.136Z,20
2017-04-14T12:55:01.238Z,20
2017-04-14T12:56:09.310Z,20
2017-04-14T12:57:17.398Z,20
2017-04-14T12:58:25.481Z,20
2017-04-14T12:59:33.574Z,20
2017-04-14T13:00:41.667Z,20
2017-04-14T13:01:49.747Z,20
2017-04-14T13:02:57.835Z,20
2017-04-14T13:04:05.922Z,20
2017-04-14T13:05:14.005Z,20
2017-04-14T13:06:22.095Z,20
2017-04-14T13:07:30.181Z,20
2017-04-14T13:08:38.269Z,20
2017-04-14T13:09:46.350Z,20
2017-04-14T13:10:54.437Z,20
2017-04-14T13:12:02.522Z,20
2017-04-14T13:13:10.606Z,20
2017-04-14T13:14:18.686Z,20
2017-04-14T13:15:26.773Z,20
2017-04-14T13:16:34.860Z,20
2017-04-14T13:17:42.941Z,20
2017-04-14T13:18:51.029Z,20
2017-04-14T13:19:59.121Z,20
2017-04-14T13:21:07.203Z,20
2017-04-14T13:22:15.284Z,20
2017-04-14T13:23:23.397Z,20
2017-04-14T13:24:31.472Z,20
2017-04-14T13:25:39.551Z,21
2017-04-14T13:26:47.643Z,20
2017-04-14T13:27:55.725Z,20
2017-04-14T13:29:03.814Z,21
2017-04-14T13:30:11.897Z,20
2017-04-14T13:31:19.986Z,20
2017-04-14T13:32:28.074Z,20
2017-04-14T13:33:36.154Z,20
2017-04-14T13:34:44.243Z,20
2017-04-14T13:35:52.649Z,20
2017-04-14T13:37:00.412Z,20
2017-04-14T13:38:08.493Z,20
2017-04-14T13:39:16.580Z,20
2017-04-14T13:40:24.664Z,20
2017-04-14T13:41:32.753Z,20
2017-04-14T13:42:40.851Z,20
2017-04-14T13:43:48.933Z,20
2017-04-14T13:44:57.011Z,20
2017-04-14T13:46:05.094Z,20
2017-04-14T13:47:13.184Z,19
2017-04-14T13:48:21.268Z,20
2017-04-14T13:49:29.354Z,20
2017-04-14T13:50:37.439Z,20
2017-04-14T13:51:45.527Z,20
2017-04-14T13:52:53.607Z,20
2017-04-14T13:54:01.693Z,20
2017-04-14T13:55:09.782Z,20
2017-04-14T13:56:17.867Z,20
2017-04-14T13:57:25.948Z,20
2017-04-14T13:58:34.033Z,20
2017-04-14T13:59:42.125Z,20
2017-04-14T14:00:50.209Z,20
2017-04-14T14:01:58.299Z,20
2017-04-14T14:03:06.380Z,20
2017-04-14T14:04:14.465Z,20
2017-04-14T14:05:22.552Z,20
2017-04-14T14:06:30.639Z,20
2017-04-14T14:07:38.724Z,20
2017-04-14T14:08:46.807Z,20
2017-04-14T14:09:54.896Z,20
2017-04-14T14:11:02.979Z,21
2017-04-14T14:12:11.066Z,21
2017-04-14T14:13:19.145Z,20
2017-04-14T14:14:27.239Z,20
2017-04-14T14:15:35.318Z,20
2017-04-14T14:16:43.402Z,21
2017-04-14T14:17:51.486Z,21
2017-04-14T14:18:59.569Z,20
2017-04-14T14:20:07.669Z,20
2017-04-14T14:21:15.742Z,21
2017-04-14T14:22:23.832Z,21
2017-04-14T14:23:31.917Z,21
2017-04-14T14:24:40.005Z,21
2017-04-14T14:25:48.090Z,21
2017-04-14T14:26:56.172Z,21
2017-04-14T14:28:04.255Z,21
2017-04-14T14:29:12.342Z,21
2017-04-14T14:30:20.429Z,21
2017-04-14T14:31:28.519Z,21
2017-04-14T14:32:36.600Z,21
2017-04-14T14:33:44.694Z,21
2017-04-14T14:34:52.781Z,22
2017-04-14T14:36:00.866Z,21
2017-04-14T14:37:08.951Z,21
2017-04-14T14:38:17.043Z,21
2017-04-14T14:39:25.130Z,22
2017-04-14T14:40:33.214Z,22
2017-04-14T14:41:41.301Z,22
2017-04-14T14:42:49.383Z,21
2017-04-14T14:43:57.468Z,22
2017-04-14T14:45:05.551Z,22
2017-04-14T14:46:13.647Z,21
2017-04-14T14:47:21.720Z,21
2017-04-14T14:48:29.802Z,21
2017-04-14T14:49:37.890Z,21
2017-04-14T14:50:45.978Z,22
2017-04-14T14:51:54.060Z,21
2017-04-14T14:53:02.147Z,22
2017-04-14T14:54:10.235Z,22
2017-04-14T14:55:18.323Z,22
2017-04-14T14:56:26.401Z,21
2017-04-14T14:57:34.490Z,22
2017-04-14T14:58:42.573Z,22
2017-04-14T14:59:50.658Z,22
2017-04-14T15:00:58.743Z,22
2017-04-14T15:02:06.830Z,22
2017-04-14T15:03:14.915Z,22
2017-04-14T15:04:22.995Z,22
2017-04-14T15:05:31.084Z,21
2017-04-14T15:06:39.175Z,22
2017-04-14T15:07:47.257Z,21
2017-04-14T15:08:55.342Z,22
2017-04-14T15:10:03.431Z,22
2017-04-14T15:11:11.515Z,22
2017-04-14T15:12:19.595Z,22
2017-04-14T15:13:27.687Z,21
2017-04-14T15:14:35.772Z,21
2017-04-14T15:15:43.852Z,22
2017-04-14T15:16:51.959Z,22
2017-04-14T15:18:00.025Z,21
2017-04-14T15:19:08.107Z,21
2017-04-14T15:20:16.194Z,21
2017-04-14T15:21:24.283Z,22
2017-04-14T15:22:32.366Z,22
2017-04-14T15:23:40.452Z,22
2017-04-14T15:24:48.534Z,22
2017-04-14T15:25:56.621Z,22
2017-04-14T15:27:04.715Z,22
2017-04-14T15:28:12.805Z,22
2017-04-14T15:29:20.894Z,22
2017-04-14T15:30:28.977Z,21
2017-04-14T15:31:37.065Z,22
2017-04-14T15:32:45.147Z,22
2017-04-14T15:33:53.232Z,22
2017-04-14T15:35:01.392Z,22
2017-04-14T15:36:09.396Z,22
2017-04-14T15:37:17.482Z,21
2017-04-14T15:38:25.573Z,22
2017-04-14T15:39:33.647Z,21
2017-04-14T15:40:41.781Z,21
2017-04-14T15:41:49.830Z,21
2017-04-14T15:42:57.913Z,22
2017-04-14T15:44:05.995Z,22
2017-04-14T15:45:14.088Z,21
2017-04-14T15:46:22.176Z,22
2017-04-14T15:47:30.262Z,22
2017-04-14T15:48:38.354Z,22
2017-04-14T15:49:46.438Z,21
2017-04-14T15:50:54.526Z,21
2017-04-14T15:52:02.607Z,21
2017-04-14T15:53:10.694Z,22
2017-04-14T15:54:18.777Z,21
2017-04-14T15:55:26.859Z,21
2017-04-14T15:56:34.946Z,22
2017-04-14T15:57:43.036Z,21
2017-04-14T15:58:51.120Z,22
2017-04-14T15:59:59.204Z,21
2017-04-14T16:01:07.294Z,21
2017-04-14T16:02:15.376Z,21
2017-04-14T16:03:23.455Z,21
2017-04-14T16:04:31.543Z,21
2017-04-14T16:05:39.624Z,22
2017-04-14T16:06:47.708Z,21
2017-04-14T16:07:55.803Z,22
2017-04-14T16:09:03.891Z,22
2017-04-14T16:10:11.981Z,22
2017-04-14T16:11:20.065Z,22